sensor_id;sensor_type;location;lat;lon;timestamp;temperature;humidity
6740;DHT22;3407;49.882;10.920;2024-02-23T00:02:26;9.20;1.00
6740;DHT22;3407;49.882;10.920;2024-02-23T00:07:21;9.20;99.90
6740;DHT22;3407;49.882;10.920;2024-02-23T00:12:17;9.10;1.00
6740;DHT22;3407;49.882;10.920;2024-02-23T00:17:12;9.10;1.00
6740;DHT22;3407;49.882;10.920;2024-02-23T00:22:08;9.10;99.90
6740;DHT22;3407;49.882;10.920;2024-02-23T00:27:04;9.10;99.90
6740;DHT22;3407;49.882;10.920;2024-02-23T00:31:59;9.10;1.00
6740;DHT22;3407;49.882;10.920;2024-02-23T00:36:55;9.00;99.90
6740;DHT22;3407;49.882;10.920;2024-02-23T00:41:50;9.10;99.90
6740;DHT22;3407;49.882;10.920;2024-02-23T00:46:46;9.10;99.90
6740;DHT22;3407;49.882;10.920;2024-02-23T00:51:41;9.10;99.90
6740;DHT22;3407;49.882;10.920;2024-02-23T00:56:37;9.00;99.90
6740;DHT22;3407;49.882;10.920;2024-02-23T01:01:32;9.00;99.90
6740;DHT22;3407;49.882;10.920;2024-02-23T01:06:28;8.90;99.90
6740;DHT22;3407;49.882;10.920;2024-02-23T01:11:23;8.90;1.00
6740;DHT22;3407;49.882;10.920;2024-02-23T01:16:19;8.80;99.90
6740;DHT22;3407;49.882;10.920;2024-02-23T01:21:14;8.80;99.90
6740;DHT22;3407;49.882;10.920;2024-02-23T01:26:10;8.80;22.90
6740;DHT22;3407;49.882;10.920;2024-02-23T01:31:09;8.60;1.00
6740;DHT22;3407;49.882;10.920;2024-02-23T01:36:06;8.60;3.00
6740;DHT22;3407;49.882;10.920;2024-02-23T01:41:02;8.50;35.20
6740;DHT22;3407;49.882;10.920;2024-02-23T01:45:57;8.30;99.90
6740;DHT22;3407;49.882;10.920;2024-02-23T01:50:53;8.30;99.90
6740;DHT22;3407;49.882;10.920;2024-02-23T01:55:50;8.20;99.90
6740;DHT22;3407;49.882;10.920;2024-02-23T02:00:45;8.20;99.90
6740;DHT22;3407;49.882;10.920;2024-02-23T02:05:41;8.10;99.90
6740;DHT22;3407;49.882;10.920;2024-02-23T02:10:37;8.10;99.90
6740;DHT22;3407;49.882;10.920;2024-02-23T02:15:32;8.00;99.90
6740;DHT22;3407;49.882;10.920;2024-02-23T02:20:28;7.90;99.90
6740;DHT22;3407;49.882;10.920;2024-02-23T02:25:27;7.80;99.90
6740;DHT22;3407;49.882;10.920;2024-02-23T02:30:22;7.80;99.90
6740;DHT22;3407;49.882;10.920;2024-02-23T02:35:18;7.70;99.90
6740;DHT22;3407;49.882;10.920;2024-02-23T02:40:13;7.70;99.90
6740;DHT22;3407;49.882;10.920;2024-02-23T02:45:09;7.70;99.90
6740;DHT22;3407;49.882;10.920;2024-02-23T02:50:05;7.80;99.90
6740;DHT22;3407;49.882;10.920;2024-02-23T02:55:01;7.80;99.90
6740;DHT22;3407;49.882;10.920;2024-02-23T02:59:57;7.80;99.90
6740;DHT22;3407;49.882;10.920;2024-02-23T03:04:52;7.80;1.00
6740;DHT22;3407;49.882;10.920;2024-02-23T03:09:50;7.80;1.00
6740;DHT22;3407;49.882;10.920;2024-02-23T03:14:46;7.80;1.00
6740;DHT22;3407;49.882;10.920;2024-02-23T03:19:41;7.70;99.90
6740;DHT22;3407;49.882;10.920;2024-02-23T03:24:37;7.60;99.90
6740;DHT22;3407;49.882;10.920;2024-02-23T03:29:33;7.50;1.00
6740;DHT22;3407;49.882;10.920;2024-02-23T03:34:28;7.40;99.90
6740;DHT22;3407;49.882;10.920;2024-02-23T03:39:24;7.40;1.00
6740;DHT22;3407;49.882;10.920;2024-02-23T03:44:20;7.30;1.00
6740;DHT22;3407;49.882;10.920;2024-02-23T03:49:16;7.30;1.00
6740;DHT22;3407;49.882;10.920;2024-02-23T03:54:11;7.40;99.90
6740;DHT22;3407;49.882;10.920;2024-02-23T03:59:07;7.40;99.90
6740;DHT22;3407;49.882;10.920;2024-02-23T04:04:06;7.40;1.00
6740;DHT22;3407;49.882;10.920;2024-02-23T04:09:02;7.40;99.90
6740;DHT22;3407;49.882;10.920;2024-02-23T04:14:00;7.40;1.00
6740;DHT22;3407;49.882;10.920;2024-02-23T04:18:56;7.30;1.00
6740;DHT22;3407;49.882;10.920;2024-02-23T04:23:52;7.20;1.00
6740;DHT22;3407;49.882;10.920;2024-02-23T04:28:47;7.00;99.90
6740;DHT22;3407;49.882;10.920;2024-02-23T04:33:43;7.00;99.90
6740;DHT22;3407;49.882;10.920;2024-02-23T04:38:38;6.70;99.90
6740;DHT22;3407;49.882;10.920;2024-02-23T04:43:34;6.50;60.00
6740;DHT22;3407;49.882;10.920;2024-02-23T04:48:29;6.30;99.90
6740;DHT22;3407;49.882;10.920;2024-02-23T04:53:26;6.20;1.00
6740;DHT22;3407;49.882;10.920;2024-02-23T04:58:22;6.20;1.00
6740;DHT22;3407;49.882;10.920;2024-02-23T05:03:17;6.20;1.00
6740;DHT22;3407;49.882;10.920;2024-02-23T05:08:13;6.20;99.90
6740;DHT22;3407;49.882;10.920;2024-02-23T05:13:08;6.20;99.90
6740;DHT22;3407;49.882;10.920;2024-02-23T05:18:04;6.10;1.00
6740;DHT22;3407;49.882;10.920;2024-02-23T05:23:00;6.00;1.00
6740;DHT22;3407;49.882;10.920;2024-02-23T05:27:56;6.00;1.00
6740;DHT22;3407;49.882;10.920;2024-02-23T05:32:51;6.00;99.90
6740;DHT22;3407;49.882;10.920;2024-02-23T05:37:47;6.00;99.90
6740;DHT22;3407;49.882;10.920;2024-02-23T05:42:42;5.90;1.00
6740;DHT22;3407;49.882;10.920;2024-02-23T05:47:38;5.90;1.00
6740;DHT22;3407;49.882;10.920;2024-02-23T05:52:34;5.90;1.00
6740;DHT22;3407;49.882;10.920;2024-02-23T05:57:30;5.90;1.00
6740;DHT22;3407;49.882;10.920;2024-02-23T06:02:25;5.90;1.00
6740;DHT22;3407;49.882;10.920;2024-02-23T06:07:21;5.90;99.90
6740;DHT22;3407;49.882;10.920;2024-02-23T06:12:24;5.80;99.90
6740;DHT22;3407;49.882;10.920;2024-02-23T06:17:20;5.90;1.00
6740;DHT22;3407;49.882;10.920;2024-02-23T06:22:15;5.90;1.00
6740;DHT22;3407;49.882;10.920;2024-02-23T06:27:16;5.90;1.00
6740;DHT22;3407;49.882;10.920;2024-02-23T06:32:11;6.00;1.00
6740;DHT22;3407;49.882;10.920;2024-02-23T06:37:07;6.00;99.90
6740;DHT22;3407;49.882;10.920;2024-02-23T06:42:02;6.10;99.90
6740;DHT22;3407;49.882;10.920;2024-02-23T06:46:59;6.00;1.00
6740;DHT22;3407;49.882;10.920;2024-02-23T06:51:55;6.10;99.90
6740;DHT22;3407;49.882;10.920;2024-02-23T06:56:51;6.10;1.00
6740;DHT22;3407;49.882;10.920;2024-02-23T07:01:50;6.10;1.00
6740;DHT22;3407;49.882;10.920;2024-02-23T07:06:46;6.20;99.90
6740;DHT22;3407;49.882;10.920;2024-02-23T07:11:41;6.20;99.90
6740;DHT22;3407;49.882;10.920;2024-02-23T07:16:39;6.20;1.00
6740;DHT22;3407;49.882;10.920;2024-02-23T07:21:35;6.20;99.90
6740;DHT22;3407;49.882;10.920;2024-02-23T07:26:30;6.20;1.00
6740;DHT22;3407;49.882;10.920;2024-02-23T07:31:26;6.30;99.90
6740;DHT22;3407;49.882;10.920;2024-02-23T07:36:21;6.30;99.90
6740;DHT22;3407;49.882;10.920;2024-02-23T07:41:17;6.30;99.90
6740;DHT22;3407;49.882;10.920;2024-02-23T07:46:15;6.30;1.00
6740;DHT22;3407;49.882;10.920;2024-02-23T07:51:12;6.30;99.90
6740;DHT22;3407;49.882;10.920;2024-02-23T07:56:07;6.50;99.90
6740;DHT22;3407;49.882;10.920;2024-02-23T08:01:03;6.60;1.00
6740;DHT22;3407;49.882;10.920;2024-02-23T08:05:59;6.70;55.90
6740;DHT22;3407;49.882;10.920;2024-02-23T08:10:56;6.90;1.00
6740;DHT22;3407;49.882;10.920;2024-02-23T08:15:51;7.20;99.90
6740;DHT22;3407;49.882;10.920;2024-02-23T08:20:47;7.30;99.90
6740;DHT22;3407;49.882;10.920;2024-02-23T08:25:42;7.20;99.90
6740;DHT22;3407;49.882;10.920;2024-02-23T08:30:38;7.20;1.00
6740;DHT22;3407;49.882;10.920;2024-02-23T08:35:33;7.30;99.90
6740;DHT22;3407;49.882;10.920;2024-02-23T08:40:29;7.30;1.00
6740;DHT22;3407;49.882;10.920;2024-02-23T08:45:24;7.40;1.00
6740;DHT22;3407;49.882;10.920;2024-02-23T08:50:20;7.40;98.10
6740;DHT22;3407;49.882;10.920;2024-02-23T08:55:16;7.30;1.00
6740;DHT22;3407;49.882;10.920;2024-02-23T09:00:13;7.40;1.00
6740;DHT22;3407;49.882;10.920;2024-02-23T09:05:09;7.60;1.00
6740;DHT22;3407;49.882;10.920;2024-02-23T09:10:05;7.80;1.00
6740;DHT22;3407;49.882;10.920;2024-02-23T09:15:01;7.90;99.90
6740;DHT22;3407;49.882;10.920;2024-02-23T09:19:56;7.90;15.20
6740;DHT22;3407;49.882;10.920;2024-02-23T09:24:52;7.90;1.00
6740;DHT22;3407;49.882;10.920;2024-02-23T09:29:47;8.00;1.00
6740;DHT22;3407;49.882;10.920;2024-02-23T09:34:43;8.00;1.00
6740;DHT22;3407;49.882;10.920;2024-02-23T09:39:38;8.10;1.00
6740;DHT22;3407;49.882;10.920;2024-02-23T09:44:34;8.20;1.00
6740;DHT22;3407;49.882;10.920;2024-02-23T09:49:30;8.20;1.00
6740;DHT22;3407;49.882;10.920;2024-02-23T09:54:26;8.30;1.00
6740;DHT22;3407;49.882;10.920;2024-02-23T09:59:21;8.50;1.00
6740;DHT22;3407;49.882;10.920;2024-02-23T10:04:18;8.70;99.90
6740;DHT22;3407;49.882;10.920;2024-02-23T10:09:14;8.60;99.90
6740;DHT22;3407;49.882;10.920;2024-02-23T10:14:11;8.60;99.90
6740;DHT22;3407;49.882;10.920;2024-02-23T10:19:06;8.50;99.90
6740;DHT22;3407;49.882;10.920;2024-02-23T10:24:02;8.40;99.90
6740;DHT22;3407;49.882;10.920;2024-02-23T10:28:57;8.60;99.90
6740;DHT22;3407;49.882;10.920;2024-02-23T10:33:54;8.80;99.90
6740;DHT22;3407;49.882;10.920;2024-02-23T10:38:54;8.70;99.90
6740;DHT22;3407;49.882;10.920;2024-02-23T10:43:52;8.60;99.90
6740;DHT22;3407;49.882;10.920;2024-02-23T10:48:48;8.70;99.90
6740;DHT22;3407;49.882;10.920;2024-02-23T10:53:45;8.70;99.90
6740;DHT22;3407;49.882;10.920;2024-02-23T10:58:41;8.60;99.90
6740;DHT22;3407;49.882;10.920;2024-02-23T11:03:38;8.80;99.90
6740;DHT22;3407;49.882;10.920;2024-02-23T11:08:36;9.00;99.90
6740;DHT22;3407;49.882;10.920;2024-02-23T11:13:35;9.10;99.90
6740;DHT22;3407;49.882;10.920;2024-02-23T11:18:32;9.20;99.90
6740;DHT22;3407;49.882;10.920;2024-02-23T11:23:44;9.00;99.90
6740;DHT22;3407;49.882;10.920;2024-02-23T11:28:52;9.00;99.90
6740;DHT22;3407;49.882;10.920;2024-02-23T11:33:53;8.90;99.90
6740;DHT22;3407;49.882;10.920;2024-02-23T11:38:53;8.90;99.90
6740;DHT22;3407;49.882;10.920;2024-02-23T11:43:52;8.90;99.90
6740;DHT22;3407;49.882;10.920;2024-02-23T11:48:49;8.80;99.90
6740;DHT22;3407;49.882;10.920;2024-02-23T11:53:50;8.90;99.90
6740;DHT22;3407;49.882;10.920;2024-02-23T11:58:46;9.00;99.90
6740;DHT22;3407;49.882;10.920;2024-02-23T12:03:42;8.80;99.90
6740;DHT22;3407;49.882;10.920;2024-02-23T12:08:39;9.00;99.90
6740;DHT22;3407;49.882;10.920;2024-02-23T12:13:35;8.70;99.90
6740;DHT22;3407;49.882;10.920;2024-02-23T12:18:34;8.90;99.90
6740;DHT22;3407;49.882;10.920;2024-02-23T12:23:40;8.90;99.90
6740;DHT22;3407;49.882;10.920;2024-02-23T12:28:36;8.90;99.90
6740;DHT22;3407;49.882;10.920;2024-02-23T12:33:37;9.10;99.90
6740;DHT22;3407;49.882;10.920;2024-02-23T12:38:34;9.40;99.90
6740;DHT22;3407;49.882;10.920;2024-02-23T12:43:30;9.50;99.90
6740;DHT22;3407;49.882;10.920;2024-02-23T12:48:25;9.20;99.90
6740;DHT22;3407;49.882;10.920;2024-02-23T12:53:33;9.40;99.90
6740;DHT22;3407;49.882;10.920;2024-02-23T12:58:31;9.30;99.90
6740;DHT22;3407;49.882;10.920;2024-02-23T13:03:26;9.00;99.90
6740;DHT22;3407;49.882;10.920;2024-02-23T13:08:23;9.10;99.90
6740;DHT22;3407;49.882;10.920;2024-02-23T13:13:19;9.30;99.90
6740;DHT22;3407;49.882;10.920;2024-02-23T13:18:15;9.30;99.90
6740;DHT22;3407;49.882;10.920;2024-02-23T13:23:11;9.30;99.90
6740;DHT22;3407;49.882;10.920;2024-02-23T13:28:08;9.40;99.90
6740;DHT22;3407;49.882;10.920;2024-02-23T13:33:03;9.40;99.90
6740;DHT22;3407;49.882;10.920;2024-02-23T13:38:00;9.50;99.90
6740;DHT22;3407;49.882;10.920;2024-02-23T13:42:58;9.40;99.90
6740;DHT22;3407;49.882;10.920;2024-02-23T13:48:02;9.40;99.90
6740;DHT22;3407;49.882;10.920;2024-02-23T13:52:58;9.20;99.90
6740;DHT22;3407;49.882;10.920;2024-02-23T13:57:53;9.20;99.90
6740;DHT22;3407;49.882;10.920;2024-02-23T14:02:49;9.20;99.90
6740;DHT22;3407;49.882;10.920;2024-02-23T14:07:44;9.20;99.90
6740;DHT22;3407;49.882;10.920;2024-02-23T14:12:41;9.10;99.90
6740;DHT22;3407;49.882;10.920;2024-02-23T14:17:36;9.10;99.90
6740;DHT22;3407;49.882;10.920;2024-02-23T14:22:32;8.80;99.90
6740;DHT22;3407;49.882;10.920;2024-02-23T14:27:28;8.80;99.90
6740;DHT22;3407;49.882;10.920;2024-02-23T14:32:23;8.80;99.90
6740;DHT22;3407;49.882;10.920;2024-02-23T14:37:19;8.90;99.90
6740;DHT22;3407;49.882;10.920;2024-02-23T14:42:15;8.90;99.90
6740;DHT22;3407;49.882;10.920;2024-02-23T14:47:11;8.90;99.90
6740;DHT22;3407;49.882;10.920;2024-02-23T14:52:08;8.90;99.90
6740;DHT22;3407;49.882;10.920;2024-02-23T14:57:03;8.90;99.90
6740;DHT22;3407;49.882;10.920;2024-02-23T15:01:59;8.80;99.90
6740;DHT22;3407;49.882;10.920;2024-02-23T15:06:54;8.60;99.90
6740;DHT22;3407;49.882;10.920;2024-02-23T15:11:50;8.50;99.90
6740;DHT22;3407;49.882;10.920;2024-02-23T15:16:45;8.40;99.90
6740;DHT22;3407;49.882;10.920;2024-02-23T15:21:41;8.30;99.90
6740;DHT22;3407;49.882;10.920;2024-02-23T15:26:37;8.20;99.90
6740;DHT22;3407;49.882;10.920;2024-02-23T15:31:33;8.20;99.90
6740;DHT22;3407;49.882;10.920;2024-02-23T15:36:29;8.20;99.90
6740;DHT22;3407;49.882;10.920;2024-02-23T15:41:27;8.10;99.90
6740;DHT22;3407;49.882;10.920;2024-02-23T15:46:23;8.10;99.90
6740;DHT22;3407;49.882;10.920;2024-02-23T15:51:19;8.10;99.90
6740;DHT22;3407;49.882;10.920;2024-02-23T15:56:14;8.00;99.90
6740;DHT22;3407;49.882;10.920;2024-02-23T16:01:10;7.80;99.90
6740;DHT22;3407;49.882;10.920;2024-02-23T16:06:05;7.70;99.90
6740;DHT22;3407;49.882;10.920;2024-02-23T16:11:01;7.60;99.90
6740;DHT22;3407;49.882;10.920;2024-02-23T16:15:56;7.60;99.90
6740;DHT22;3407;49.882;10.920;2024-02-23T16:20:52;7.50;99.90
6740;DHT22;3407;49.882;10.920;2024-02-23T16:25:48;7.40;99.90
6740;DHT22;3407;49.882;10.920;2024-02-23T16:30:44;7.30;99.90
6740;DHT22;3407;49.882;10.920;2024-02-23T16:35:40;7.20;99.90
6740;DHT22;3407;49.882;10.920;2024-02-23T16:40:35;7.20;99.90
6740;DHT22;3407;49.882;10.920;2024-02-23T16:45:31;7.00;99.90
6740;DHT22;3407;49.882;10.920;2024-02-23T16:50:27;6.90;99.90
6740;DHT22;3407;49.882;10.920;2024-02-23T16:55:22;6.90;99.90
6740;DHT22;3407;49.882;10.920;2024-02-23T17:00:18;6.80;99.90
6740;DHT22;3407;49.882;10.920;2024-02-23T17:05:14;6.70;99.90
6740;DHT22;3407;49.882;10.920;2024-02-23T17:10:10;6.60;99.90
6740;DHT22;3407;49.882;10.920;2024-02-23T17:15:05;6.50;1.00
6740;DHT22;3407;49.882;10.920;2024-02-23T17:20:01;6.40;1.00
6740;DHT22;3407;49.882;10.920;2024-02-23T17:24:56;6.40;1.00
6740;DHT22;3407;49.882;10.920;2024-02-23T17:29:52;6.30;1.00
6740;DHT22;3407;49.882;10.920;2024-02-23T17:34:48;6.20;1.00
6740;DHT22;3407;49.882;10.920;2024-02-23T17:39:44;6.20;1.00
6740;DHT22;3407;49.882;10.920;2024-02-23T17:44:39;6.20;1.00
6740;DHT22;3407;49.882;10.920;2024-02-23T17:49:36;6.10;1.00
6740;DHT22;3407;49.882;10.920;2024-02-23T17:54:31;5.90;99.90
6740;DHT22;3407;49.882;10.920;2024-02-23T17:59:27;5.80;99.90
6740;DHT22;3407;49.882;10.920;2024-02-23T18:04:22;5.70;99.90
6740;DHT22;3407;49.882;10.920;2024-02-23T18:09:18;5.60;99.90
6740;DHT22;3407;49.882;10.920;2024-02-23T18:14:14;5.50;1.00
6740;DHT22;3407;49.882;10.920;2024-02-23T18:19:09;5.50;1.00
6740;DHT22;3407;49.882;10.920;2024-02-23T18:24:06;5.60;23.30
6740;DHT22;3407;49.882;10.920;2024-02-23T18:29:02;5.50;15.80
6740;DHT22;3407;49.882;10.920;2024-02-23T18:33:57;5.40;99.90
6740;DHT22;3407;49.882;10.920;2024-02-23T18:38:53;5.30;1.00
6740;DHT22;3407;49.882;10.920;2024-02-23T18:43:49;5.20;1.00
6740;DHT22;3407;49.882;10.920;2024-02-23T18:48:45;5.20;99.90
6740;DHT22;3407;49.882;10.920;2024-02-23T18:53:40;5.10;1.00
6740;DHT22;3407;49.882;10.920;2024-02-23T18:58:36;4.90;1.00
6740;DHT22;3407;49.882;10.920;2024-02-23T19:03:31;4.80;99.90
6740;DHT22;3407;49.882;10.920;2024-02-23T19:08:28;4.80;99.90
6740;DHT22;3407;49.882;10.920;2024-02-23T19:13:23;4.80;90.30
6740;DHT22;3407;49.882;10.920;2024-02-23T19:18:19;4.90;1.00
6740;DHT22;3407;49.882;10.920;2024-02-23T19:23:15;4.90;1.00
6740;DHT22;3407;49.882;10.920;2024-02-23T19:28:11;4.90;99.90
6740;DHT22;3407;49.882;10.920;2024-02-23T19:33:07;5.00;1.00
6740;DHT22;3407;49.882;10.920;2024-02-23T19:38:03;5.00;99.90
6740;DHT22;3407;49.882;10.920;2024-02-23T19:42:58;5.00;11.30
6740;DHT22;3407;49.882;10.920;2024-02-23T19:47:54;5.00;1.00
6740;DHT22;3407;49.882;10.920;2024-02-23T19:52:49;5.10;99.90
6740;DHT22;3407;49.882;10.920;2024-02-23T19:57:45;5.10;1.00
6740;DHT22;3407;49.882;10.920;2024-02-23T20:02:41;5.00;1.00
6740;DHT22;3407;49.882;10.920;2024-02-23T20:07:36;5.00;1.00
6740;DHT22;3407;49.882;10.920;2024-02-23T20:12:32;5.00;99.90
6740;DHT22;3407;49.882;10.920;2024-02-23T20:17:28;5.00;99.90
6740;DHT22;3407;49.882;10.920;2024-02-23T20:22:24;5.00;1.00
6740;DHT22;3407;49.882;10.920;2024-02-23T20:27:21;4.90;66.50
6740;DHT22;3407;49.882;10.920;2024-02-23T20:32:17;4.80;1.00
6740;DHT22;3407;49.882;10.920;2024-02-23T20:37:12;4.80;1.00
6740;DHT22;3407;49.882;10.920;2024-02-23T20:42:08;4.80;1.00
6740;DHT22;3407;49.882;10.920;2024-02-23T20:47:05;4.80;1.00
6740;DHT22;3407;49.882;10.920;2024-02-23T20:52:01;4.80;1.00
6740;DHT22;3407;49.882;10.920;2024-02-23T20:56:56;4.80;1.00
6740;DHT22;3407;49.882;10.920;2024-02-23T21:01:52;4.80;1.00
6740;DHT22;3407;49.882;10.920;2024-02-23T21:06:48;4.80;1.00
6740;DHT22;3407;49.882;10.920;2024-02-23T21:11:43;4.70;1.00
6740;DHT22;3407;49.882;10.920;2024-02-23T21:16:39;4.70;1.00
6740;DHT22;3407;49.882;10.920;2024-02-23T21:21:34;4.70;1.00
6740;DHT22;3407;49.882;10.920;2024-02-23T21:26:30;4.70;99.90
6740;DHT22;3407;49.882;10.920;2024-02-23T21:31:26;4.80;1.00
6740;DHT22;3407;49.882;10.920;2024-02-23T21:36:21;4.80;1.00
6740;DHT22;3407;49.882;10.920;2024-02-23T21:41:17;4.70;52.80
6740;DHT22;3407;49.882;10.920;2024-02-23T21:46:12;4.70;1.00
6740;DHT22;3407;49.882;10.920;2024-02-23T21:51:08;4.70;27.00
6740;DHT22;3407;49.882;10.920;2024-02-23T21:56:04;4.70;99.90
6740;DHT22;3407;49.882;10.920;2024-02-23T22:01:00;4.60;1.00
6740;DHT22;3407;49.882;10.920;2024-02-23T22:05:56;4.50;99.90
6740;DHT22;3407;49.882;10.920;2024-02-23T22:10:51;4.40;99.90
6740;DHT22;3407;49.882;10.920;2024-02-23T22:15:49;4.30;99.90
6740;DHT22;3407;49.882;10.920;2024-02-23T22:20:44;4.20;99.90
6740;DHT22;3407;49.882;10.920;2024-02-23T22:25:40;4.20;1.00
6740;DHT22;3407;49.882;10.920;2024-02-23T22:30:35;4.10;1.00
6740;DHT22;3407;49.882;10.920;2024-02-23T22:35:31;4.10;1.00
6740;DHT22;3407;49.882;10.920;2024-02-23T22:40:26;4.10;1.00
6740;DHT22;3407;49.882;10.920;2024-02-23T22:45:22;4.10;99.90
6740;DHT22;3407;49.882;10.920;2024-02-23T22:50:18;4.00;99.90
6740;DHT22;3407;49.882;10.920;2024-02-23T22:55:13;4.00;99.90
6740;DHT22;3407;49.882;10.920;2024-02-23T23:00:10;4.00;1.00
6740;DHT22;3407;49.882;10.920;2024-02-23T23:05:06;4.00;95.00
6740;DHT22;3407;49.882;10.920;2024-02-23T23:10:03;4.00;1.00
6740;DHT22;3407;49.882;10.920;2024-02-23T23:14:58;3.90;1.00
6740;DHT22;3407;49.882;10.920;2024-02-23T23:19:54;3.90;1.00
6740;DHT22;3407;49.882;10.920;2024-02-23T23:24:49;3.80;99.90
6740;DHT22;3407;49.882;10.920;2024-02-23T23:29:45;3.80;1.00
6740;DHT22;3407;49.882;10.920;2024-02-23T23:34:41;3.80;1.00
6740;DHT22;3407;49.882;10.920;2024-02-23T23:39:37;3.80;99.90
6740;DHT22;3407;49.882;10.920;2024-02-23T23:44:34;3.70;1.00
6740;DHT22;3407;49.882;10.920;2024-02-23T23:49:29;3.60;99.90
6740;DHT22;3407;49.882;10.920;2024-02-23T23:54:25;3.50;99.90
6740;DHT22;3407;49.882;10.920;2024-02-23T23:59:20;3.30;1.00
